sensor_id;sensor_type;location;lat;lon;timestamp;P1;durP1;ratioP1;P2;durP2;ratioP2
2305;SDS011;1161;51.922;8.896;2024-01-10T00:01:00;18.23;;;8.10;;
2305;SDS011;1161;51.922;8.896;2024-01-10T00:03:28;18.45;;;7.93;;
2305;SDS011;1161;51.922;8.896;2024-01-10T00:05:55;13.88;;;7.30;;
2305;SDS011;1161;51.922;8.896;2024-01-10T00:08:21;16.98;;;9.23;;
2305;SDS011;1161;51.922;8.896;2024-01-10T00:10:48;15.32;;;8.30;;
2305;SDS011;1161;51.922;8.896;2024-01-10T00:13:15;18.55;;;8.85;;
2305;SDS011;1161;51.922;8.896;2024-01-10T00:15:43;15.20;;;6.30;;
2305;SDS011;1161;51.922;8.896;2024-01-10T00:18:09;25.40;;;9.15;;
2305;SDS011;1161;51.922;8.896;2024-01-10T00:20:36;25.63;;;7.65;;
2305;SDS011;1161;51.922;8.896;2024-01-10T00:23:03;15.90;;;7.65;;
2305;SDS011;1161;51.922;8.896;2024-01-10T00:25:30;12.02;;;7.18;;
2305;SDS011;1161;51.922;8.896;2024-01-10T00:27:57;17.38;;;7.90;;
2305;SDS011;1161;51.922;8.896;2024-01-10T00:30:25;22.30;;;9.02;;
2305;SDS011;1161;51.922;8.896;2024-01-10T00:32:53;14.32;;;7.65;;
2305;SDS011;1161;51.922;8.896;2024-01-10T00:35:20;20.00;;;9.07;;
2305;SDS011;1161;51.922;8.896;2024-01-10T00:37:46;16.45;;;8.55;;
2305;SDS011;1161;51.922;8.896;2024-01-10T00:40:13;14.57;;;8.25;;
2305;SDS011;1161;51.922;8.896;2024-01-10T00:42:40;13.38;;;9.32;;
2305;SDS011;1161;51.922;8.896;2024-01-10T00:45:07;17.20;;;7.28;;
2305;SDS011;1161;51.922;8.896;2024-01-10T00:47:34;12.73;;;8.82;;
2305;SDS011;1161;51.922;8.896;2024-01-10T00:50:02;12.68;;;7.00;;
2305;SDS011;1161;51.922;8.896;2024-01-10T00:52:29;22.35;;;10.73;;
2305;SDS011;1161;51.922;8.896;2024-01-10T00:54:56;12.38;;;8.35;;
2305;SDS011;1161;51.922;8.896;2024-01-10T00:57:22;18.33;;;6.95;;
2305;SDS011;1161;51.922;8.896;2024-01-10T00:59:49;12.48;;;9.10;;
2305;SDS011;1161;51.922;8.896;2024-01-10T01:02:16;19.15;;;6.10;;
2305;SDS011;1161;51.922;8.896;2024-01-10T01:04:42;11.23;;;7.47;;
2305;SDS011;1161;51.922;8.896;2024-01-10T01:07:11;13.38;;;8.07;;
2305;SDS011;1161;51.922;8.896;2024-01-10T01:09:37;16.08;;;8.52;;
2305;SDS011;1161;51.922;8.896;2024-01-10T01:12:04;17.48;;;8.98;;
2305;SDS011;1161;51.922;8.896;2024-01-10T01:14:31;15.80;;;8.30;;
2305;SDS011;1161;51.922;8.896;2024-01-10T01:16:58;17.00;;;9.20;;
2305;SDS011;1161;51.922;8.896;2024-01-10T01:19:25;15.35;;;8.10;;
2305;SDS011;1161;51.922;8.896;2024-01-10T01:21:52;15.52;;;7.95;;
2305;SDS011;1161;51.922;8.896;2024-01-10T01:24:20;16.52;;;8.73;;
2305;SDS011;1161;51.922;8.896;2024-01-10T01:26:48;16.20;;;7.88;;
2305;SDS011;1161;51.922;8.896;2024-01-10T01:29:15;22.45;;;9.25;;
2305;SDS011;1161;51.922;8.896;2024-01-10T01:31:43;21.50;;;8.57;;
2305;SDS011;1161;51.922;8.896;2024-01-10T01:34:10;21.95;;;8.07;;
2305;SDS011;1161;51.922;8.896;2024-01-10T01:36:37;15.80;;;7.72;;
2305;SDS011;1161;51.922;8.896;2024-01-10T01:39:04;18.52;;;11.20;;
2305;SDS011;1161;51.922;8.896;2024-01-10T01:41:32;24.42;;;10.07;;
2305;SDS011;1161;51.922;8.896;2024-01-10T01:43:59;15.70;;;9.38;;
2305;SDS011;1161;51.922;8.896;2024-01-10T01:46:26;14.15;;;7.85;;
2305;SDS011;1161;51.922;8.896;2024-01-10T01:48:54;17.80;;;10.90;;
2305;SDS011;1161;51.922;8.896;2024-01-10T01:51:20;15.30;;;7.90;;
2305;SDS011;1161;51.922;8.896;2024-01-10T01:53:48;21.25;;;8.18;;
2305;SDS011;1161;51.922;8.896;2024-01-10T01:56:15;21.00;;;9.73;;
2305;SDS011;1161;51.922;8.896;2024-01-10T01:58:44;21.23;;;9.85;;
2305;SDS011;1161;51.922;8.896;2024-01-10T02:01:12;26.02;;;8.60;;
2305;SDS011;1161;51.922;8.896;2024-01-10T02:03:39;17.30;;;8.43;;
2305;SDS011;1161;51.922;8.896;2024-01-10T02:06:06;20.80;;;8.07;;
2305;SDS011;1161;51.922;8.896;2024-01-10T02:08:34;12.23;;;8.40;;
2305;SDS011;1161;51.922;8.896;2024-01-10T02:11:01;16.60;;;7.55;;
2305;SDS011;1161;51.922;8.896;2024-01-10T02:13:28;8.73;;;7.60;;
2305;SDS011;1161;51.922;8.896;2024-01-10T02:15:57;24.65;;;9.40;;
2305;SDS011;1161;51.922;8.896;2024-01-10T02:18:24;13.88;;;10.80;;
2305;SDS011;1161;51.922;8.896;2024-01-10T02:20:51;9.00;;;7.05;;
2305;SDS011;1161;51.922;8.896;2024-01-10T02:23:18;21.15;;;8.20;;
2305;SDS011;1161;51.922;8.896;2024-01-10T02:25:46;14.07;;;8.15;;
2305;SDS011;1161;51.922;8.896;2024-01-10T02:28:13;25.10;;;9.85;;
2305;SDS011;1161;51.922;8.896;2024-01-10T02:30:40;16.42;;;8.05;;
2305;SDS011;1161;51.922;8.896;2024-01-10T02:33:07;16.40;;;9.10;;
2305;SDS011;1161;51.922;8.896;2024-01-10T02:35:33;17.50;;;10.23;;
2305;SDS011;1161;51.922;8.896;2024-01-10T02:38:01;16.67;;;7.78;;
2305;SDS011;1161;51.922;8.896;2024-01-10T02:40:28;16.23;;;7.40;;
2305;SDS011;1161;51.922;8.896;2024-01-10T02:42:56;25.15;;;10.18;;
2305;SDS011;1161;51.922;8.896;2024-01-10T02:45:23;19.52;;;8.38;;
2305;SDS011;1161;51.922;8.896;2024-01-10T02:47:50;16.00;;;9.93;;
2305;SDS011;1161;51.922;8.896;2024-01-10T02:50:17;19.77;;;9.38;;
2305;SDS011;1161;51.922;8.896;2024-01-10T02:52:44;19.10;;;9.38;;
2305;SDS011;1161;51.922;8.896;2024-01-10T02:55:11;27.65;;;9.70;;
2305;SDS011;1161;51.922;8.896;2024-01-10T02:57:37;21.45;;;10.90;;
2305;SDS011;1161;51.922;8.896;2024-01-10T03:00:07;14.93;;;9.23;;
2305;SDS011;1161;51.922;8.896;2024-01-10T03:02:34;21.52;;;10.07;;
2305;SDS011;1161;51.922;8.896;2024-01-10T03:05:01;21.67;;;8.18;;
2305;SDS011;1161;51.922;8.896;2024-01-10T03:07:28;13.10;;;8.32;;
2305;SDS011;1161;51.922;8.896;2024-01-10T03:09:55;13.68;;;8.57;;
2305;SDS011;1161;51.922;8.896;2024-01-10T03:12:21;22.60;;;10.02;;
2305;SDS011;1161;51.922;8.896;2024-01-10T03:14:48;28.17;;;10.60;;
2305;SDS011;1161;51.922;8.896;2024-01-10T03:17:16;18.90;;;10.35;;
2305;SDS011;1161;51.922;8.896;2024-01-10T03:19:43;26.90;;;9.82;;
2305;SDS011;1161;51.922;8.896;2024-01-10T03:22:11;26.05;;;9.32;;
2305;SDS011;1161;51.922;8.896;2024-01-10T03:24:38;26.40;;;9.68;;
2305;SDS011;1161;51.922;8.896;2024-01-10T03:27:05;26.70;;;11.82;;
2305;SDS011;1161;51.922;8.896;2024-01-10T03:29:32;35.28;;;11.00;;
2305;SDS011;1161;51.922;8.896;2024-01-10T03:32:00;31.65;;;11.80;;
2305;SDS011;1161;51.922;8.896;2024-01-10T03:34:28;41.35;;;12.20;;
2305;SDS011;1161;51.922;8.896;2024-01-10T03:36:55;25.23;;;11.70;;
2305;SDS011;1161;51.922;8.896;2024-01-10T03:39:22;16.73;;;10.85;;
2305;SDS011;1161;51.922;8.896;2024-01-10T03:41:49;21.38;;;8.77;;
2305;SDS011;1161;51.922;8.896;2024-01-10T03:44:16;29.42;;;9.77;;
2305;SDS011;1161;51.922;8.896;2024-01-10T03:46:43;33.92;;;13.30;;
2305;SDS011;1161;51.922;8.896;2024-01-10T03:49:10;20.90;;;12.85;;
2305;SDS011;1161;51.922;8.896;2024-01-10T03:51:38;32.70;;;12.32;;
2305;SDS011;1161;51.922;8.896;2024-01-10T03:54:06;28.42;;;13.77;;
2305;SDS011;1161;51.922;8.896;2024-01-10T03:56:33;17.58;;;9.25;;
2305;SDS011;1161;51.922;8.896;2024-01-10T03:58:59;38.80;;;11.30;;
2305;SDS011;1161;51.922;8.896;2024-01-10T04:01:27;23.38;;;12.00;;
2305;SDS011;1161;51.922;8.896;2024-01-10T04:03:54;25.17;;;12.15;;
2305;SDS011;1161;51.922;8.896;2024-01-10T04:06:21;25.85;;;10.27;;
2305;SDS011;1161;51.922;8.896;2024-01-10T04:08:49;22.92;;;11.77;;
2305;SDS011;1161;51.922;8.896;2024-01-10T04:11:16;33.55;;;12.20;;
2305;SDS011;1161;51.922;8.896;2024-01-10T04:13:43;29.92;;;12.75;;
2305;SDS011;1161;51.922;8.896;2024-01-10T04:16:11;27.08;;;11.43;;
2305;SDS011;1161;51.922;8.896;2024-01-10T04:18:39;24.98;;;11.93;;
2305;SDS011;1161;51.922;8.896;2024-01-10T04:21:06;28.23;;;9.90;;
2305;SDS011;1161;51.922;8.896;2024-01-10T04:23:33;33.10;;;13.65;;
2305;SDS011;1161;51.922;8.896;2024-01-10T04:26:04;17.50;;;9.38;;
2305;SDS011;1161;51.922;8.896;2024-01-10T04:28:31;21.95;;;10.20;;
2305;SDS011;1161;51.922;8.896;2024-01-10T04:30:57;20.05;;;12.07;;
2305;SDS011;1161;51.922;8.896;2024-01-10T04:33:24;20.60;;;11.45;;
2305;SDS011;1161;51.922;8.896;2024-01-10T04:35:51;25.55;;;11.70;;
2305;SDS011;1161;51.922;8.896;2024-01-10T04:38:23;22.42;;;11.90;;
2305;SDS011;1161;51.922;8.896;2024-01-10T04:40:54;19.95;;;10.60;;
2305;SDS011;1161;51.922;8.896;2024-01-10T04:43:23;25.98;;;11.73;;
2305;SDS011;1161;51.922;8.896;2024-01-10T04:45:57;18.60;;;9.98;;
2305;SDS011;1161;51.922;8.896;2024-01-10T04:48:24;29.58;;;12.00;;
2305;SDS011;1161;51.922;8.896;2024-01-10T04:50:55;20.00;;;10.98;;
2305;SDS011;1161;51.922;8.896;2024-01-10T04:53:23;27.83;;;11.75;;
2305;SDS011;1161;51.922;8.896;2024-01-10T04:55:50;23.77;;;11.18;;
2305;SDS011;1161;51.922;8.896;2024-01-10T04:58:24;23.80;;;12.50;;
2305;SDS011;1161;51.922;8.896;2024-01-10T05:00:51;20.05;;;10.23;;
2305;SDS011;1161;51.922;8.896;2024-01-10T05:03:19;36.22;;;12.10;;
2305;SDS011;1161;51.922;8.896;2024-01-10T05:05:48;26.98;;;10.68;;
2305;SDS011;1161;51.922;8.896;2024-01-10T05:08:17;25.02;;;12.43;;
2305;SDS011;1161;51.922;8.896;2024-01-10T05:10:49;14.93;;;10.23;;
2305;SDS011;1161;51.922;8.896;2024-01-10T05:13:19;21.50;;;10.50;;
2305;SDS011;1161;51.922;8.896;2024-01-10T05:15:57;23.60;;;10.50;;
2305;SDS011;1161;51.922;8.896;2024-01-10T05:18:27;30.95;;;12.02;;
2305;SDS011;1161;51.922;8.896;2024-01-10T05:20:55;26.90;;;13.95;;
2305;SDS011;1161;51.922;8.896;2024-01-10T05:23:23;25.83;;;11.90;;
2305;SDS011;1161;51.922;8.896;2024-01-10T05:25:51;26.40;;;13.32;;
2305;SDS011;1161;51.922;8.896;2024-01-10T05:28:20;23.40;;;10.90;;
2305;SDS011;1161;51.922;8.896;2024-01-10T05:30:52;17.88;;;10.38;;
2305;SDS011;1161;51.922;8.896;2024-01-10T05:33:26;34.25;;;12.60;;
2305;SDS011;1161;51.922;8.896;2024-01-10T05:35:55;28.15;;;11.13;;
2305;SDS011;1161;51.922;8.896;2024-01-10T05:38:27;22.67;;;10.25;;
2305;SDS011;1161;51.922;8.896;2024-01-10T05:40:55;21.92;;;9.60;;
2305;SDS011;1161;51.922;8.896;2024-01-10T05:43:26;31.60;;;12.07;;
2305;SDS011;1161;51.922;8.896;2024-01-10T05:45:54;27.48;;;11.93;;
2305;SDS011;1161;51.922;8.896;2024-01-10T05:48:21;27.75;;;11.23;;
2305;SDS011;1161;51.922;8.896;2024-01-10T05:50:50;25.70;;;11.00;;
2305;SDS011;1161;51.922;8.896;2024-01-10T05:53:17;39.17;;;14.07;;
2305;SDS011;1161;51.922;8.896;2024-01-10T05:55:44;32.58;;;12.77;;
2305;SDS011;1161;51.922;8.896;2024-01-10T05:58:12;29.67;;;13.07;;
2305;SDS011;1161;51.922;8.896;2024-01-10T06:00:40;22.27;;;12.45;;
2305;SDS011;1161;51.922;8.896;2024-01-10T06:03:09;12.73;;;9.48;;
2305;SDS011;1161;51.922;8.896;2024-01-10T06:05:36;32.65;;;13.30;;
2305;SDS011;1161;51.922;8.896;2024-01-10T06:08:11;27.25;;;12.40;;
2305;SDS011;1161;51.922;8.896;2024-01-10T06:10:41;29.88;;;13.85;;
2305;SDS011;1161;51.922;8.896;2024-01-10T06:13:09;40.10;;;14.13;;
2305;SDS011;1161;51.922;8.896;2024-01-10T06:15:39;37.47;;;12.25;;
2305;SDS011;1161;51.922;8.896;2024-01-10T06:18:09;20.92;;;12.30;;
2305;SDS011;1161;51.922;8.896;2024-01-10T06:20:36;27.35;;;10.40;;
2305;SDS011;1161;51.922;8.896;2024-01-10T06:23:06;37.03;;;13.32;;
2305;SDS011;1161;51.922;8.896;2024-01-10T06:25:35;27.48;;;12.57;;
2305;SDS011;1161;51.922;8.896;2024-01-10T06:28:02;28.55;;;13.02;;
2305;SDS011;1161;51.922;8.896;2024-01-10T06:30:31;33.70;;;12.20;;
2305;SDS011;1161;51.922;8.896;2024-01-10T06:33:00;26.65;;;10.77;;
2305;SDS011;1161;51.922;8.896;2024-01-10T06:35:27;20.27;;;11.95;;
2305;SDS011;1161;51.922;8.896;2024-01-10T06:37:53;17.40;;;10.82;;
2305;SDS011;1161;51.922;8.896;2024-01-10T06:40:20;34.13;;;13.00;;
2305;SDS011;1161;51.922;8.896;2024-01-10T06:42:49;23.23;;;11.50;;
2305;SDS011;1161;51.922;8.896;2024-01-10T06:45:16;23.52;;;12.38;;
2305;SDS011;1161;51.922;8.896;2024-01-10T06:47:42;26.30;;;13.20;;
2305;SDS011;1161;51.922;8.896;2024-01-10T06:50:09;24.58;;;14.63;;
2305;SDS011;1161;51.922;8.896;2024-01-10T06:52:36;34.35;;;12.00;;
2305;SDS011;1161;51.922;8.896;2024-01-10T06:55:04;23.70;;;12.95;;
2305;SDS011;1161;51.922;8.896;2024-01-10T06:57:31;23.67;;;11.57;;
2305;SDS011;1161;51.922;8.896;2024-01-10T06:59:59;56.33;;;15.05;;
2305;SDS011;1161;51.922;8.896;2024-01-10T07:02:29;39.10;;;14.00;;
2305;SDS011;1161;51.922;8.896;2024-01-10T07:04:57;29.27;;;13.77;;
2305;SDS011;1161;51.922;8.896;2024-01-10T07:07:24;25.92;;;14.30;;
2305;SDS011;1161;51.922;8.896;2024-01-10T07:09:51;37.50;;;14.30;;
2305;SDS011;1161;51.922;8.896;2024-01-10T07:12:18;15.30;;;12.80;;
2305;SDS011;1161;51.922;8.896;2024-01-10T07:14:45;32.72;;;14.25;;
2305;SDS011;1161;51.922;8.896;2024-01-10T07:17:13;20.73;;;10.77;;
2305;SDS011;1161;51.922;8.896;2024-01-10T07:19:39;24.52;;;12.98;;
2305;SDS011;1161;51.922;8.896;2024-01-10T07:22:07;27.52;;;13.70;;
2305;SDS011;1161;51.922;8.896;2024-01-10T07:24:35;13.98;;;12.30;;
2305;SDS011;1161;51.922;8.896;2024-01-10T07:27:02;25.48;;;13.98;;
2305;SDS011;1161;51.922;8.896;2024-01-10T07:29:29;29.95;;;10.80;;
2305;SDS011;1161;51.922;8.896;2024-01-10T07:31:57;34.20;;;13.38;;
2305;SDS011;1161;51.922;8.896;2024-01-10T07:34:25;20.83;;;12.93;;
2305;SDS011;1161;51.922;8.896;2024-01-10T07:36:52;38.47;;;14.00;;
2305;SDS011;1161;51.922;8.896;2024-01-10T07:39:19;42.63;;;16.35;;
2305;SDS011;1161;51.922;8.896;2024-01-10T07:41:46;35.28;;;14.52;;
2305;SDS011;1161;51.922;8.896;2024-01-10T07:44:15;33.95;;;16.10;;
2305;SDS011;1161;51.922;8.896;2024-01-10T07:46:42;41.60;;;15.00;;
2305;SDS011;1161;51.922;8.896;2024-01-10T07:49:08;28.40;;;11.65;;
2305;SDS011;1161;51.922;8.896;2024-01-10T07:51:36;23.52;;;14.60;;
2305;SDS011;1161;51.922;8.896;2024-01-10T07:54:03;26.48;;;12.45;;
2305;SDS011;1161;51.922;8.896;2024-01-10T07:56:30;26.27;;;12.90;;
2305;SDS011;1161;51.922;8.896;2024-01-10T07:58:57;24.50;;;13.98;;
2305;SDS011;1161;51.922;8.896;2024-01-10T08:01:23;27.70;;;13.55;;
2305;SDS011;1161;51.922;8.896;2024-01-10T08:03:50;41.38;;;15.23;;
2305;SDS011;1161;51.922;8.896;2024-01-10T08:06:18;29.42;;;15.50;;
2305;SDS011;1161;51.922;8.896;2024-01-10T08:08:46;25.90;;;13.73;;
2305;SDS011;1161;51.922;8.896;2024-01-10T08:11:12;50.50;;;19.45;;
2305;SDS011;1161;51.922;8.896;2024-01-10T08:13:39;40.20;;;16.05;;
2305;SDS011;1161;51.922;8.896;2024-01-10T08:16:06;36.85;;;15.15;;
2305;SDS011;1161;51.922;8.896;2024-01-10T08:18:34;47.85;;;16.52;;
2305;SDS011;1161;51.922;8.896;2024-01-10T08:21:01;28.98;;;15.40;;
2305;SDS011;1161;51.922;8.896;2024-01-10T08:23:29;28.08;;;15.05;;
2305;SDS011;1161;51.922;8.896;2024-01-10T08:25:58;23.17;;;13.18;;
2305;SDS011;1161;51.922;8.896;2024-01-10T08:28:24;38.90;;;16.60;;
2305;SDS011;1161;51.922;8.896;2024-01-10T08:30:51;40.53;;;14.75;;
2305;SDS011;1161;51.922;8.896;2024-01-10T08:33:18;32.58;;;14.88;;
2305;SDS011;1161;51.922;8.896;2024-01-10T08:35:45;34.30;;;15.75;;
2305;SDS011;1161;51.922;8.896;2024-01-10T08:38:12;39.80;;;17.80;;
2305;SDS011;1161;51.922;8.896;2024-01-10T08:40:38;47.88;;;16.17;;
2305;SDS011;1161;51.922;8.896;2024-01-10T08:43:07;37.00;;;15.52;;
2305;SDS011;1161;51.922;8.896;2024-01-10T08:45:34;44.05;;;16.17;;
2305;SDS011;1161;51.922;8.896;2024-01-10T08:48:01;43.20;;;16.80;;
2305;SDS011;1161;51.922;8.896;2024-01-10T08:50:28;24.20;;;12.23;;
2305;SDS011;1161;51.922;8.896;2024-01-10T08:52:55;35.78;;;16.42;;
2305;SDS011;1161;51.922;8.896;2024-01-10T08:55:22;45.85;;;14.50;;
2305;SDS011;1161;51.922;8.896;2024-01-10T08:57:48;29.30;;;16.85;;
2305;SDS011;1161;51.922;8.896;2024-01-10T09:00:16;26.60;;;12.37;;
2305;SDS011;1161;51.922;8.896;2024-01-10T09:02:43;64.35;;;19.17;;
2305;SDS011;1161;51.922;8.896;2024-01-10T09:05:10;42.28;;;16.52;;
2305;SDS011;1161;51.922;8.896;2024-01-10T09:07:37;30.10;;;14.02;;
2305;SDS011;1161;51.922;8.896;2024-01-10T09:10:04;44.50;;;18.17;;
2305;SDS011;1161;51.922;8.896;2024-01-10T09:12:33;40.60;;;17.10;;
2305;SDS011;1161;51.922;8.896;2024-01-10T09:14:59;26.65;;;11.73;;
2305;SDS011;1161;51.922;8.896;2024-01-10T09:17:28;39.75;;;16.83;;
2305;SDS011;1161;51.922;8.896;2024-01-10T09:19:56;32.53;;;15.57;;
2305;SDS011;1161;51.922;8.896;2024-01-10T09:22:22;37.58;;;15.13;;
2305;SDS011;1161;51.922;8.896;2024-01-10T09:24:50;40.28;;;13.05;;
2305;SDS011;1161;51.922;8.896;2024-01-10T09:27:16;41.13;;;17.80;;
2305;SDS011;1161;51.922;8.896;2024-01-10T09:29:43;32.55;;;15.73;;
2305;SDS011;1161;51.922;8.896;2024-01-10T09:32:10;40.60;;;14.05;;
2305;SDS011;1161;51.922;8.896;2024-01-10T09:34:39;35.53;;;14.93;;
2305;SDS011;1161;51.922;8.896;2024-01-10T09:37:05;26.75;;;13.60;;
2305;SDS011;1161;51.922;8.896;2024-01-10T09:39:32;28.65;;;14.30;;
2305;SDS011;1161;51.922;8.896;2024-01-10T09:41:59;36.78;;;16.67;;
2305;SDS011;1161;51.922;8.896;2024-01-10T09:44:27;27.80;;;13.05;;
2305;SDS011;1161;51.922;8.896;2024-01-10T09:46:54;32.58;;;12.15;;
2305;SDS011;1161;51.922;8.896;2024-01-10T09:49:21;28.23;;;13.77;;
2305;SDS011;1161;51.922;8.896;2024-01-10T09:51:49;37.40;;;15.75;;
2305;SDS011;1161;51.922;8.896;2024-01-10T09:54:17;30.60;;;15.80;;
2305;SDS011;1161;51.922;8.896;2024-01-10T09:56:45;27.45;;;15.05;;
2305;SDS011;1161;51.922;8.896;2024-01-10T09:59:12;28.65;;;15.60;;
2305;SDS011;1161;51.922;8.896;2024-01-10T10:01:39;31.02;;;13.50;;
2305;SDS011;1161;51.922;8.896;2024-01-10T10:04:06;42.08;;;14.75;;
2305;SDS011;1161;51.922;8.896;2024-01-10T10:06:33;29.88;;;13.88;;
2305;SDS011;1161;51.922;8.896;2024-01-10T10:09:02;37.78;;;15.95;;
2305;SDS011;1161;51.922;8.896;2024-01-10T10:11:29;36.58;;;15.27;;
2305;SDS011;1161;51.922;8.896;2024-01-10T10:13:57;42.45;;;17.15;;
2305;SDS011;1161;51.922;8.896;2024-01-10T10:16:40;52.38;;;19.85;;
2305;SDS011;1161;51.922;8.896;2024-01-10T10:19:06;42.92;;;16.60;;
2305;SDS011;1161;51.922;8.896;2024-01-10T10:21:34;32.03;;;15.95;;
2305;SDS011;1161;51.922;8.896;2024-01-10T10:24:03;45.97;;;17.45;;
2305;SDS011;1161;51.922;8.896;2024-01-10T10:26:32;29.52;;;14.23;;
2305;SDS011;1161;51.922;8.896;2024-01-10T10:28:59;34.70;;;17.10;;
2305;SDS011;1161;51.922;8.896;2024-01-10T10:31:25;25.40;;;14.93;;
2305;SDS011;1161;51.922;8.896;2024-01-10T10:33:54;34.28;;;14.95;;
2305;SDS011;1161;51.922;8.896;2024-01-10T10:36:21;30.10;;;15.55;;
2305;SDS011;1161;51.922;8.896;2024-01-10T10:38:48;33.63;;;14.10;;
2305;SDS011;1161;51.922;8.896;2024-01-10T10:41:17;23.83;;;16.75;;
2305;SDS011;1161;51.922;8.896;2024-01-10T10:43:45;34.35;;;16.48;;
2305;SDS011;1161;51.922;8.896;2024-01-10T10:46:12;43.47;;;16.60;;
2305;SDS011;1161;51.922;8.896;2024-01-10T10:48:40;40.42;;;16.98;;
2305;SDS011;1161;51.922;8.896;2024-01-10T10:51:08;36.03;;;17.00;;
2305;SDS011;1161;51.922;8.896;2024-01-10T10:53:36;31.58;;;16.13;;
2305;SDS011;1161;51.922;8.896;2024-01-10T10:56:04;32.58;;;16.52;;
2305;SDS011;1161;51.922;8.896;2024-01-10T10:58:34;32.17;;;14.85;;
2305;SDS011;1161;51.922;8.896;2024-01-10T11:01:03;39.15;;;16.45;;
2305;SDS011;1161;51.922;8.896;2024-01-10T11:03:33;33.35;;;15.80;;
2305;SDS011;1161;51.922;8.896;2024-01-10T11:06:01;38.58;;;16.17;;
2305;SDS011;1161;51.922;8.896;2024-01-10T11:08:29;38.65;;;17.42;;
2305;SDS011;1161;51.922;8.896;2024-01-10T11:10:57;29.80;;;15.55;;
2305;SDS011;1161;51.922;8.896;2024-01-10T11:13:26;31.83;;;16.40;;
2305;SDS011;1161;51.922;8.896;2024-01-10T11:16:07;44.70;;;16.42;;
2305;SDS011;1161;51.922;8.896;2024-01-10T11:18:46;28.33;;;16.80;;
2305;SDS011;1161;51.922;8.896;2024-01-10T11:21:21;52.25;;;19.30;;
2305;SDS011;1161;51.922;8.896;2024-01-10T11:23:54;36.33;;;16.90;;
2305;SDS011;1161;51.922;8.896;2024-01-10T11:26:21;34.20;;;16.08;;
2305;SDS011;1161;51.922;8.896;2024-01-10T11:28:48;33.35;;;14.68;;
2305;SDS011;1161;51.922;8.896;2024-01-10T11:31:18;50.65;;;18.52;;
2305;SDS011;1161;51.922;8.896;2024-01-10T11:33:53;38.17;;;16.63;;
2305;SDS011;1161;51.922;8.896;2024-01-10T11:36:22;56.83;;;17.92;;
2305;SDS011;1161;51.922;8.896;2024-01-10T11:38:53;43.15;;;18.98;;
2305;SDS011;1161;51.922;8.896;2024-01-10T11:41:22;42.35;;;16.98;;
2305;SDS011;1161;51.922;8.896;2024-01-10T11:46:57;48.35;;;17.55;;
2305;SDS011;1161;51.922;8.896;2024-01-10T11:49:24;37.03;;;18.55;;
2305;SDS011;1161;51.922;8.896;2024-01-10T11:51:52;32.45;;;15.60;;
2305;SDS011;1161;51.922;8.896;2024-01-10T11:54:35;46.33;;;16.17;;
2305;SDS011;1161;51.922;8.896;2024-01-10T11:57:10;31.77;;;16.85;;
2305;SDS011;1161;51.922;8.896;2024-01-10T11:59:38;36.83;;;17.38;;
2305;SDS011;1161;51.922;8.896;2024-01-10T12:02:07;38.80;;;16.88;;
2305;SDS011;1161;51.922;8.896;2024-01-10T12:04:34;55.05;;;20.63;;
2305;SDS011;1161;51.922;8.896;2024-01-10T12:07:02;40.60;;;17.42;;
2305;SDS011;1161;51.922;8.896;2024-01-10T12:09:29;37.30;;;14.68;;
2305;SDS011;1161;51.922;8.896;2024-01-10T12:11:56;38.75;;;16.65;;
2305;SDS011;1161;51.922;8.896;2024-01-10T12:14:23;47.47;;;16.33;;
2305;SDS011;1161;51.922;8.896;2024-01-10T12:16:50;46.28;;;17.38;;
2305;SDS011;1161;51.922;8.896;2024-01-10T12:19:19;51.33;;;17.33;;
2305;SDS011;1161;51.922;8.896;2024-01-10T12:21:46;37.28;;;14.88;;
2305;SDS011;1161;51.922;8.896;2024-01-10T12:24:13;36.63;;;16.38;;
2305;SDS011;1161;51.922;8.896;2024-01-10T12:26:43;39.08;;;16.73;;
2305;SDS011;1161;51.922;8.896;2024-01-10T12:29:10;39.30;;;17.77;;
2305;SDS011;1161;51.922;8.896;2024-01-10T12:31:37;28.10;;;16.23;;
2305;SDS011;1161;51.922;8.896;2024-01-10T12:34:06;33.15;;;17.88;;
2305;SDS011;1161;51.922;8.896;2024-01-10T12:36:34;34.40;;;17.27;;
2305;SDS011;1161;51.922;8.896;2024-01-10T12:39:01;33.15;;;17.33;;
2305;SDS011;1161;51.922;8.896;2024-01-10T12:41:28;28.90;;;15.88;;
2305;SDS011;1161;51.922;8.896;2024-01-10T12:43:55;32.80;;;15.25;;
2305;SDS011;1161;51.922;8.896;2024-01-10T12:46:22;34.70;;;17.13;;
2305;SDS011;1161;51.922;8.896;2024-01-10T12:48:57;42.58;;;18.08;;
2305;SDS011;1161;51.922;8.896;2024-01-10T12:51:26;45.75;;;18.33;;
2305;SDS011;1161;51.922;8.896;2024-01-10T12:53:55;28.13;;;15.55;;
2305;SDS011;1161;51.922;8.896;2024-01-10T12:56:24;37.13;;;19.50;;
2305;SDS011;1161;51.922;8.896;2024-01-10T12:58:51;43.22;;;18.10;;
2305;SDS011;1161;51.922;8.896;2024-01-10T13:01:17;34.90;;;16.83;;
2305;SDS011;1161;51.922;8.896;2024-01-10T13:03:44;50.80;;;17.23;;
2305;SDS011;1161;51.922;8.896;2024-01-10T13:06:12;42.03;;;17.20;;
2305;SDS011;1161;51.922;8.896;2024-01-10T13:08:38;39.25;;;17.88;;
2305;SDS011;1161;51.922;8.896;2024-01-10T13:11:06;43.05;;;20.48;;
2305;SDS011;1161;51.922;8.896;2024-01-10T13:13:35;33.17;;;17.10;;
2305;SDS011;1161;51.922;8.896;2024-01-10T13:16:02;44.95;;;19.30;;
2305;SDS011;1161;51.922;8.896;2024-01-10T13:18:29;39.80;;;17.40;;
2305;SDS011;1161;51.922;8.896;2024-01-10T13:20:56;37.88;;;18.23;;
2305;SDS011;1161;51.922;8.896;2024-01-10T13:23:23;43.42;;;22.45;;
2305;SDS011;1161;51.922;8.896;2024-01-10T13:25:49;30.98;;;18.58;;
2305;SDS011;1161;51.922;8.896;2024-01-10T13:28:18;42.45;;;17.70;;
2305;SDS011;1161;51.922;8.896;2024-01-10T13:30:45;39.08;;;19.10;;
2305;SDS011;1161;51.922;8.896;2024-01-10T13:33:11;36.22;;;17.30;;
2305;SDS011;1161;51.922;8.896;2024-01-10T13:35:38;64.25;;;20.05;;
2305;SDS011;1161;51.922;8.896;2024-01-10T13:38:06;35.05;;;16.75;;
2305;SDS011;1161;51.922;8.896;2024-01-10T13:40:33;51.70;;;20.27;;
2305;SDS011;1161;51.922;8.896;2024-01-10T13:43:00;42.70;;;18.60;;
2305;SDS011;1161;51.922;8.896;2024-01-10T13:45:31;40.17;;;17.77;;
2305;SDS011;1161;51.922;8.896;2024-01-10T13:47:58;36.80;;;18.35;;
2305;SDS011;1161;51.922;8.896;2024-01-10T13:50:26;35.55;;;16.42;;
2305;SDS011;1161;51.922;8.896;2024-01-10T13:52:53;37.90;;;18.15;;
2305;SDS011;1161;51.922;8.896;2024-01-10T13:55:20;40.83;;;18.40;;
2305;SDS011;1161;51.922;8.896;2024-01-10T13:57:49;43.25;;;20.25;;
2305;SDS011;1161;51.922;8.896;2024-01-10T14:00:16;42.55;;;17.13;;
2305;SDS011;1161;51.922;8.896;2024-01-10T14:02:46;43.92;;;17.83;;
2305;SDS011;1161;51.922;8.896;2024-01-10T14:05:13;41.10;;;17.50;;
2305;SDS011;1161;51.922;8.896;2024-01-10T14:07:40;39.30;;;19.45;;
2305;SDS011;1161;51.922;8.896;2024-01-10T14:10:09;34.65;;;18.25;;
2305;SDS011;1161;51.922;8.896;2024-01-10T14:12:37;38.10;;;20.20;;
2305;SDS011;1161;51.922;8.896;2024-01-10T14:15:04;47.88;;;20.05;;
2305;SDS011;1161;51.922;8.896;2024-01-10T14:17:31;39.53;;;17.10;;
2305;SDS011;1161;51.922;8.896;2024-01-10T14:19:59;43.95;;;17.73;;
2305;SDS011;1161;51.922;8.896;2024-01-10T14:22:26;37.42;;;17.92;;
2305;SDS011;1161;51.922;8.896;2024-01-10T14:24:53;48.60;;;20.90;;
2305;SDS011;1161;51.922;8.896;2024-01-10T14:27:20;45.47;;;20.58;;
2305;SDS011;1161;51.922;8.896;2024-01-10T14:29:47;46.45;;;21.80;;
2305;SDS011;1161;51.922;8.896;2024-01-10T14:32:14;58.22;;;23.80;;
2305;SDS011;1161;51.922;8.896;2024-01-10T14:34:41;55.80;;;24.50;;
2305;SDS011;1161;51.922;8.896;2024-01-10T14:37:09;54.90;;;21.92;;
2305;SDS011;1161;51.922;8.896;2024-01-10T14:39:36;44.70;;;20.75;;
2305;SDS011;1161;51.922;8.896;2024-01-10T14:42:05;58.30;;;23.75;;
2305;SDS011;1161;51.922;8.896;2024-01-10T14:44:34;48.97;;;23.73;;
2305;SDS011;1161;51.922;8.896;2024-01-10T14:47:01;53.97;;;22.55;;
2305;SDS011;1161;51.922;8.896;2024-01-10T14:49:28;42.25;;;21.63;;
2305;SDS011;1161;51.922;8.896;2024-01-10T14:51:56;63.72;;;23.98;;
2305;SDS011;1161;51.922;8.896;2024-01-10T14:54:24;42.90;;;23.02;;
2305;SDS011;1161;51.922;8.896;2024-01-10T14:56:51;72.13;;;25.23;;